createdAt,value
2023-01-31T00:01:27.878Z,-0.71
2023-01-31T00:04:02.451Z,-0.76
2023-01-31T00:06:35.730Z,-0.77
2023-01-31T00:09:05.687Z,-0.76
2023-01-31T00:11:41.043Z,-0.77
2023-01-31T00:14:18.265Z,-0.76
2023-01-31T00:16:46.627Z,-0.80
2023-01-31T00:19:14.828Z,-0.84
2023-01-31T00:21:44.211Z,-0.75
2023-01-31T00:24:20.894Z,-0.74
2023-01-31T00:26:50.778Z,-0.74
2023-01-31T00:29:20.882Z,-0.72
2023-01-31T00:31:49.704Z,-0.79
2023-01-31T00:34:18.836Z,-0.74
2023-01-31T00:36:47.975Z,-0.66
2023-01-31T00:39:19.232Z,-0.64
2023-01-31T00:41:47.810Z,-0.73
2023-01-31T00:44:15.975Z,-0.74
2023-01-31T00:46:45.108Z,-0.73
2023-01-31T00:49:14.014Z,-0.72
2023-01-31T00:51:45.337Z,-0.66
2023-01-31T00:54:14.325Z,-0.63
2023-01-31T00:56:43.370Z,-0.64
2023-01-31T00:59:13.021Z,-0.65
2023-01-31T01:01:45.281Z,-0.65
2023-01-31T01:04:13.629Z,-0.69
2023-01-31T01:06:44.465Z,-0.64
2023-01-31T01:09:12.716Z,-0.68
2023-01-31T01:11:41.480Z,-0.68
2023-01-31T01:14:09.741Z,-0.64
2023-01-31T01:16:39.408Z,-0.62
2023-01-31T01:19:11.323Z,-0.60
2023-01-31T01:21:41.774Z,-0.59
2023-01-31T01:24:15.147Z,-0.57
2023-01-31T01:26:44.459Z,-0.57
2023-01-31T01:29:13.353Z,-0.56
2023-01-31T01:31:42.411Z,-0.55
2023-01-31T01:34:15.459Z,-0.59
2023-01-31T01:36:47.556Z,-0.59
2023-01-31T01:39:17.032Z,-0.58
2023-01-31T01:41:45.647Z,-0.53
2023-01-31T01:44:47.323Z,-0.52
2023-01-31T01:47:41.302Z,-0.50
2023-01-31T01:50:34.012Z,-0.54
2023-01-31T01:53:24.890Z,-0.54
2023-01-31T01:56:08.627Z,-0.55
2023-01-31T01:58:46.066Z,-0.54
2023-01-31T02:01:17.058Z,-0.54
2023-01-31T02:03:47.025Z,-0.54
2023-01-31T02:06:16.494Z,-0.48
2023-01-31T02:08:45.646Z,-0.49
2023-01-31T02:11:28.394Z,-0.55
2023-01-31T02:14:07.944Z,-0.51
2023-01-31T02:16:37.207Z,-0.53
2023-01-31T02:19:10.336Z,-0.52
2023-01-31T02:21:53.706Z,-0.51
2023-01-31T02:24:53.173Z,-0.53
2023-01-31T02:28:00.655Z,-0.53
2023-01-31T02:30:40.774Z,-0.53
2023-01-31T02:33:24.173Z,-0.52
2023-01-31T02:36:41.696Z,-0.56
2023-01-31T02:39:42.444Z,-0.46
2023-01-31T02:42:19.680Z,-0.50
2023-01-31T02:45:00.964Z,-0.52
2023-01-31T02:47:51.477Z,-0.56
2023-01-31T02:50:40.427Z,-0.56
2023-01-31T02:53:32.393Z,-0.54
2023-01-31T02:56:20.206Z,-0.52
2023-01-31T02:59:28.691Z,-0.54
2023-01-31T03:02:00.539Z,-0.52
2023-01-31T03:04:33.092Z,-0.54
2023-01-31T03:07:26.864Z,-0.59
2023-01-31T03:10:10.891Z,-0.61
2023-01-31T03:12:52.373Z,-0.66
2023-01-31T03:15:57.389Z,-0.62
2023-01-31T03:18:50.862Z,-0.62
2023-01-31T03:21:24.886Z,-0.66
2023-01-31T03:23:54.350Z,-0.68
2023-01-31T03:26:23.644Z,-0.72
2023-01-31T03:28:57.738Z,-0.72
2023-01-31T03:31:54.462Z,-0.72
2023-01-31T03:34:26.087Z,-0.65
2023-01-31T03:37:04.365Z,-0.68
2023-01-31T03:39:52.952Z,-0.73
2023-01-31T03:42:54.865Z,-0.70
2023-01-31T03:45:34.262Z,-0.70
2023-01-31T03:48:04.382Z,-0.79
2023-01-31T03:50:42.147Z,-0.83
2023-01-31T03:53:30.585Z,-0.85
2023-01-31T03:56:03.741Z,-0.78
2023-01-31T03:58:38.667Z,-0.80
2023-01-31T04:01:08.438Z,-0.84
2023-01-31T04:03:55.317Z,-0.85
2023-01-31T04:06:23.699Z,-0.82
2023-01-31T04:08:52.149Z,-0.89
2023-01-31T04:11:23.871Z,-0.84
2023-01-31T04:13:51.932Z,-0.83
2023-01-31T04:16:20.387Z,-0.87
2023-01-31T04:18:49.677Z,-0.84
2023-01-31T04:21:18.661Z,-0.86
2023-01-31T04:23:47.288Z,-0.90
2023-01-31T04:26:15.891Z,-0.87
2023-01-31T04:28:44.430Z,-0.86
2023-01-31T04:31:12.871Z,-0.79
2023-01-31T04:33:42.300Z,-0.86
2023-01-31T04:36:11.237Z,-0.87
2023-01-31T04:38:39.877Z,-0.81
2023-01-31T04:41:09.730Z,-0.88
2023-01-31T04:43:38.041Z,-0.93
2023-01-31T04:46:05.964Z,-0.93
2023-01-31T04:48:35.795Z,-0.98
2023-01-31T04:51:03.944Z,-1.05
2023-01-31T04:53:32.511Z,-1.09
2023-01-31T04:56:03.711Z,-1.03
2023-01-31T04:58:32.826Z,-1.16
2023-01-31T05:01:00.898Z,-1.21
2023-01-31T05:03:29.584Z,-1.19
2023-01-31T05:05:58.012Z,-1.22
2023-01-31T05:08:27.212Z,-1.14
2023-01-31T05:11:04.294Z,-1.06
2023-01-31T05:13:33.226Z,-1.08
2023-01-31T05:16:01.614Z,-1.10
2023-01-31T05:18:30.529Z,-1.05
2023-01-31T05:21:00.261Z,-1.00
2023-01-31T05:23:28.678Z,-1.00
2023-01-31T05:25:57.788Z,-0.99
2023-01-31T05:28:26.722Z,-1.05
2023-01-31T05:30:57.085Z,-1.00
2023-01-31T05:33:29.367Z,-0.90
2023-01-31T05:35:58.606Z,-0.84
2023-01-31T05:38:26.939Z,-0.86
2023-01-31T05:40:55.071Z,-0.83
2023-01-31T05:43:23.438Z,-0.79
2023-01-31T05:45:51.613Z,-0.70
2023-01-31T05:48:19.841Z,-0.58
2023-01-31T05:50:50.218Z,-0.63
2023-01-31T05:53:19.355Z,-0.64
2023-01-31T05:55:48.177Z,-0.60
2023-01-31T05:58:17.865Z,-0.54
2023-01-31T06:00:46.383Z,-0.46
2023-01-31T06:03:14.534Z,-0.49
2023-01-31T06:05:43.023Z,-0.47
2023-01-31T06:08:11.551Z,-0.43
2023-01-31T06:10:41.588Z,-0.37
2023-01-31T06:13:10.657Z,-0.38
2023-01-31T06:15:45.992Z,-0.30
2023-01-31T06:18:14.969Z,-0.20
2023-01-31T06:20:43.743Z,-0.19
2023-01-31T06:23:12.121Z,-0.16
2023-01-31T06:25:40.402Z,-0.07
2023-01-31T06:28:13.213Z,-0.05
2023-01-31T06:30:41.525Z,0.03
2023-01-31T06:33:09.993Z,0.04
2023-01-31T06:35:41.896Z,0.11
2023-01-31T06:38:12.798Z,0.20
2023-01-31T06:40:41.846Z,0.16
2023-01-31T06:43:10.342Z,0.28
2023-01-31T06:45:38.803Z,0.33
2023-01-31T06:48:09.443Z,0.41
2023-01-31T06:50:37.481Z,0.38
2023-01-31T06:53:06.168Z,0.35
2023-01-31T06:55:34.857Z,0.28
2023-01-31T06:58:03.595Z,0.29
2023-01-31T07:00:33.205Z,0.52
2023-01-31T07:03:01.590Z,0.64
2023-01-31T07:05:30.483Z,0.68
2023-01-31T07:08:00.760Z,0.84
2023-01-31T07:10:31.809Z,1.04
2023-01-31T07:13:00.402Z,1.21
2023-01-31T07:15:28.685Z,1.37
2023-01-31T07:18:03.957Z,1.40
2023-01-31T07:20:33.345Z,1.43
2023-01-31T07:23:02.192Z,1.62
2023-01-31T07:25:32.718Z,1.67
2023-01-31T07:28:02.528Z,1.69
2023-01-31T07:30:33.683Z,1.58
2023-01-31T07:33:09.401Z,1.69
2023-01-31T07:35:44.590Z,1.84
2023-01-31T07:38:12.769Z,1.87
2023-01-31T07:40:40.863Z,1.99
2023-01-31T07:43:09.125Z,1.87
2023-01-31T07:45:37.927Z,1.83
2023-01-31T07:48:07.653Z,1.85
2023-01-31T07:50:35.524Z,1.92
2023-01-31T07:53:06.334Z,2.08
2023-01-31T07:55:34.243Z,2.13
2023-01-31T07:58:02.690Z,2.36
2023-01-31T08:00:49.375Z,2.36
2023-01-31T08:03:34.724Z,2.38
2023-01-31T08:06:13.579Z,2.28
2023-01-31T08:08:42.645Z,2.09
2023-01-31T08:11:14.199Z,2.12
2023-01-31T08:13:43.437Z,2.13
2023-01-31T08:16:11.918Z,2.15
2023-01-31T08:18:40.999Z,2.30
2023-01-31T08:21:15.148Z,2.33
2023-01-31T08:23:46.912Z,2.54
2023-01-31T08:26:20.408Z,2.60
2023-01-31T08:28:49.451Z,2.61
2023-01-31T08:31:20.612Z,2.58
2023-01-31T08:33:51.619Z,2.72
2023-01-31T08:36:20.505Z,2.81
2023-01-31T08:38:49.956Z,2.85
2023-01-31T08:41:19.533Z,2.96
2023-01-31T08:43:58.319Z,2.92
2023-01-31T08:46:32.448Z,3.32
2023-01-31T08:49:07.522Z,3.62
2023-01-31T08:51:36.858Z,3.45
2023-01-31T08:54:05.016Z,3.30
2023-01-31T08:56:33.885Z,3.42
2023-01-31T08:59:02.304Z,3.49
2023-01-31T09:01:30.601Z,3.52
2023-01-31T09:03:59.032Z,3.50
2023-01-31T09:06:27.987Z,3.28
2023-01-31T09:09:00.481Z,3.24
2023-01-31T09:11:30.650Z,3.27
2023-01-31T09:13:58.868Z,3.37
2023-01-31T09:16:27.143Z,3.38
2023-01-31T09:18:56.706Z,3.44
2023-01-31T09:21:27.242Z,3.63
2023-01-31T09:23:58.906Z,3.67
2023-01-31T09:26:27.344Z,3.76
2023-01-31T09:29:02.407Z,3.74
2023-01-31T09:31:33.608Z,3.72
2023-01-31T09:34:02.240Z,3.77
2023-01-31T09:36:31.971Z,3.72
2023-01-31T09:39:00.765Z,3.58
2023-01-31T09:41:37.293Z,3.49
2023-01-31T09:44:19.697Z,3.46
2023-01-31T09:46:56.595Z,3.50
2023-01-31T09:49:30.912Z,3.70
2023-01-31T09:52:01.582Z,3.81
2023-01-31T09:54:39.879Z,3.67
2023-01-31T09:57:13.534Z,3.71
2023-01-31T09:59:57.397Z,3.77
2023-01-31T10:02:29.719Z,3.67
2023-01-31T10:05:04.096Z,3.63
2023-01-31T10:07:53.490Z,3.49
2023-01-31T10:10:38.207Z,3.59
2023-01-31T10:13:16.217Z,3.57
2023-01-31T10:15:50.194Z,3.75
2023-01-31T10:18:25.235Z,3.95
2023-01-31T10:20:54.968Z,3.96
2023-01-31T10:23:46.784Z,3.93
2023-01-31T10:26:26.014Z,3.94
2023-01-31T10:29:05.419Z,3.87
2023-01-31T10:31:45.561Z,3.57
2023-01-31T10:34:27.926Z,3.49
2023-01-31T10:37:08.280Z,3.59
2023-01-31T10:39:44.662Z,3.78
2023-01-31T10:42:20.705Z,3.90
2023-01-31T10:45:19.530Z,3.67
2023-01-31T10:48:01.459Z,3.18
2023-01-31T10:50:58.449Z,3.21
2023-01-31T10:53:58.483Z,3.00
2023-01-31T10:56:38.274Z,2.86
2023-01-31T10:59:19.191Z,3.14
2023-01-31T11:01:47.204Z,3.34
2023-01-31T11:04:29.095Z,3.27
2023-01-31T11:07:01.806Z,3.08
2023-01-31T11:09:35.117Z,3.10
2023-01-31T11:12:05.667Z,2.95
2023-01-31T11:14:36.992Z,2.92
2023-01-31T11:17:17.318Z,3.23
2023-01-31T11:19:53.013Z,3.37
2023-01-31T11:22:27.020Z,3.43
2023-01-31T11:24:56.609Z,3.52
2023-01-31T11:27:28.004Z,3.41
2023-01-31T11:30:00.273Z,3.14
2023-01-31T11:32:31.439Z,3.29
2023-01-31T11:35:06.376Z,3.30
2023-01-31T11:37:35.082Z,3.33
2023-01-31T11:40:30.421Z,3.26
2023-01-31T11:43:20.581Z,3.15
2023-01-31T11:45:58.896Z,3.25
2023-01-31T11:48:37.236Z,3.14
2023-01-31T11:51:06.084Z,3.00
2023-01-31T11:53:51.048Z,2.88
2023-01-31T11:56:29.166Z,2.53
2023-01-31T11:58:59.401Z,2.38
2023-01-31T12:01:29.219Z,2.53
2023-01-31T12:04:03.605Z,2.68
2023-01-31T12:06:37.836Z,2.77
2023-01-31T12:09:24.552Z,2.65
2023-01-31T12:12:00.726Z,2.59
2023-01-31T12:14:40.783Z,2.53
2023-01-31T12:17:14.749Z,2.70
2023-01-31T12:20:02.499Z,2.62
2023-01-31T12:23:05.450Z,2.62
2023-01-31T12:26:04.171Z,2.65
2023-01-31T12:28:51.081Z,2.62
2023-01-31T12:31:45.041Z,2.56
2023-01-31T12:35:02.962Z,2.60
2023-01-31T12:37:58.608Z,2.52
2023-01-31T12:40:30.798Z,2.47
2023-01-31T12:43:04.805Z,2.50
2023-01-31T12:46:04.470Z,2.51
2023-01-31T12:49:09.718Z,2.42
2023-01-31T12:52:01.028Z,2.31
2023-01-31T12:54:57.437Z,2.19
2023-01-31T12:57:48.791Z,2.14
2023-01-31T13:00:37.323Z,1.99
2023-01-31T13:03:31.746Z,2.03
2023-01-31T13:06:37.774Z,2.04
2023-01-31T13:09:33.313Z,1.93
2023-01-31T13:12:15.521Z,1.95
2023-01-31T13:14:51.189Z,1.91
2023-01-31T13:17:24.386Z,1.98
2023-01-31T13:19:59.435Z,1.98
2023-01-31T13:22:36.761Z,1.99
2023-01-31T13:25:17.912Z,1.94
2023-01-31T13:28:15.045Z,1.93
2023-01-31T13:30:54.546Z,1.90
2023-01-31T13:33:28.600Z,1.96
2023-01-31T13:36:28.408Z,1.86
2023-01-31T13:38:56.811Z,1.82
2023-01-31T13:41:48.911Z,1.79
2023-01-31T13:44:18.150Z,1.79
2023-01-31T13:46:59.649Z,1.80
2023-01-31T13:49:51.234Z,1.78
2023-01-31T13:52:30.897Z,1.69
2023-01-31T13:55:02.725Z,1.62
2023-01-31T13:57:33.868Z,1.43
2023-01-31T14:00:43.896Z,1.40
2023-01-31T14:03:19.800Z,1.32
2023-01-31T14:06:06.051Z,1.24
2023-01-31T14:08:51.774Z,1.31
2023-01-31T14:11:22.508Z,1.21
2023-01-31T14:14:09.603Z,1.15
2023-01-31T14:16:44.001Z,1.25
2023-01-31T14:19:44.779Z,1.19
2023-01-31T14:22:23.079Z,1.10
2023-01-31T14:24:54.065Z,0.98
2023-01-31T14:27:32.237Z,0.90
2023-01-31T14:30:06.405Z,0.89
2023-01-31T14:33:08.269Z,0.90
2023-01-31T14:35:54.668Z,0.85
2023-01-31T14:38:45.728Z,0.91
2023-01-31T14:41:38.203Z,0.94
2023-01-31T14:44:44.552Z,0.98
2023-01-31T14:47:43.477Z,1.02
2023-01-31T14:50:24.717Z,0.96
2023-01-31T14:53:15.069Z,0.95
2023-01-31T14:56:09.310Z,0.94
2023-01-31T14:58:45.297Z,0.83
2023-01-31T15:01:14.962Z,0.80
2023-01-31T15:03:55.062Z,0.81
2023-01-31T15:06:28.269Z,0.69
2023-01-31T15:09:21.992Z,0.75
2023-01-31T15:11:51.803Z,0.77
2023-01-31T15:14:45.556Z,0.78
2023-01-31T15:17:37.646Z,0.81
2023-01-31T15:20:17.784Z,0.85
2023-01-31T15:22:46.106Z,0.85
2023-01-31T15:25:30.032Z,0.80
2023-01-31T15:27:59.703Z,0.81
2023-01-31T15:30:29.557Z,0.80
2023-01-31T15:33:01.333Z,0.82
2023-01-31T15:35:50.159Z,0.82
2023-01-31T15:38:29.562Z,0.73
2023-01-31T15:41:18.755Z,0.71
2023-01-31T15:43:47.934Z,0.73
2023-01-31T15:46:31.785Z,0.77
2023-01-31T15:49:01.132Z,0.80
2023-01-31T15:51:29.853Z,0.77
2023-01-31T15:54:07.284Z,0.74
2023-01-31T15:56:41.147Z,0.78
2023-01-31T15:59:13.919Z,0.78
2023-01-31T16:01:52.857Z,0.74
2023-01-31T16:04:20.919Z,0.72
2023-01-31T16:06:54.672Z,0.72
2023-01-31T16:09:39.125Z,0.80
2023-01-31T16:12:08.026Z,0.79
2023-01-31T16:14:38.373Z,0.77
2023-01-31T16:17:06.744Z,0.85
2023-01-31T16:19:38.283Z,0.86
2023-01-31T16:22:24.597Z,0.88
2023-01-31T16:24:57.128Z,0.85
2023-01-31T16:27:25.825Z,0.84
2023-01-31T16:29:57.797Z,0.77
2023-01-31T16:32:30.343Z,0.72
2023-01-31T16:35:01.330Z,0.75
2023-01-31T16:37:43.927Z,0.84
2023-01-31T16:40:21.944Z,0.77
2023-01-31T16:42:49.995Z,0.69
2023-01-31T16:45:33.084Z,0.72
2023-01-31T16:48:32.780Z,0.75
2023-01-31T16:51:24.264Z,0.77
2023-01-31T16:54:16.565Z,0.75
2023-01-31T16:56:46.134Z,0.72
2023-01-31T16:59:53.094Z,0.80
2023-01-31T17:02:36.104Z,0.88
2023-01-31T17:05:39.403Z,0.95
2023-01-31T17:08:20.177Z,0.94
2023-01-31T17:10:50.216Z,0.97
2023-01-31T17:13:27.368Z,1.03
2023-01-31T17:15:55.984Z,1.01
2023-01-31T17:18:27.431Z,0.93
2023-01-31T17:20:55.794Z,0.90
2023-01-31T17:23:23.937Z,0.95
2023-01-31T17:25:53.934Z,0.98
2023-01-31T17:28:23.431Z,1.00
2023-01-31T17:30:51.535Z,0.97
2023-01-31T17:33:19.591Z,1.04
2023-01-31T17:35:50.046Z,1.02
2023-01-31T17:38:21.598Z,0.99
2023-01-31T17:41:14.728Z,0.96
2023-01-31T17:43:43.558Z,0.89
2023-01-31T17:46:16.888Z,0.85
2023-01-31T17:48:45.641Z,0.85
2023-01-31T17:51:14.331Z,0.85
2023-01-31T17:53:49.944Z,0.84
2023-01-31T17:56:19.346Z,0.90
2023-01-31T17:58:48.778Z,0.82
2023-01-31T18:01:19.143Z,0.79
2023-01-31T18:03:49.368Z,0.79
2023-01-31T18:06:17.797Z,0.79
2023-01-31T18:08:46.284Z,0.76
2023-01-31T18:11:19.409Z,0.74
2023-01-31T18:13:50.172Z,0.70
2023-01-31T18:16:23.280Z,0.66
2023-01-31T18:18:54.234Z,0.64
2023-01-31T18:21:27.205Z,0.66
2023-01-31T18:23:57.245Z,0.75
2023-01-31T18:26:25.858Z,0.71
2023-01-31T18:28:56.388Z,0.69
2023-01-31T18:31:24.580Z,0.67
2023-01-31T18:33:52.989Z,0.65
2023-01-31T18:36:22.729Z,0.67
2023-01-31T18:38:51.669Z,0.68
2023-01-31T18:41:21.449Z,0.63
2023-01-31T18:43:52.882Z,0.71
2023-01-31T18:46:21.937Z,0.79
2023-01-31T18:48:50.750Z,0.82
2023-01-31T18:51:23.249Z,0.80
2023-01-31T18:53:52.361Z,0.81
2023-01-31T18:56:22.782Z,0.74
2023-01-31T18:58:55.009Z,0.70
2023-01-31T19:01:29.021Z,0.70
2023-01-31T19:04:03.124Z,0.66
2023-01-31T19:06:37.372Z,0.71
2023-01-31T19:09:06.973Z,0.75
2023-01-31T19:11:38.592Z,0.75
2023-01-31T19:14:07.758Z,0.73
2023-01-31T19:16:38.070Z,0.73
2023-01-31T19:19:07.162Z,0.78
2023-01-31T19:21:39.491Z,0.81
2023-01-31T19:24:17.272Z,0.87
2023-01-31T19:26:46.961Z,0.92
2023-01-31T19:29:17.481Z,0.83
2023-01-31T19:31:46.265Z,0.81
2023-01-31T19:34:14.831Z,0.78
2023-01-31T19:36:44.915Z,0.79
2023-01-31T19:39:14.390Z,0.84
2023-01-31T19:41:43.989Z,0.79
2023-01-31T19:44:12.446Z,0.81
2023-01-31T19:46:41.504Z,0.84
2023-01-31T19:49:12.755Z,0.75
2023-01-31T19:51:41.712Z,0.78
2023-01-31T19:54:13.944Z,0.71
2023-01-31T19:56:45.725Z,0.66
2023-01-31T19:59:17.029Z,0.60
2023-01-31T20:01:46.035Z,0.55
2023-01-31T20:04:14.419Z,0.58
2023-01-31T20:06:43.710Z,0.58
2023-01-31T20:09:20.446Z,0.63
2023-01-31T20:11:51.412Z,0.67
2023-01-31T20:14:20.337Z,0.70
2023-01-31T20:16:51.884Z,0.72
2023-01-31T20:19:23.118Z,0.76
2023-01-31T20:21:55.747Z,0.78
2023-01-31T20:24:24.948Z,0.70
2023-01-31T20:26:53.509Z,0.74
2023-01-31T20:29:22.081Z,0.73
2023-01-31T20:31:53.086Z,0.80
2023-01-31T20:34:21.357Z,0.75
2023-01-31T20:36:49.492Z,0.73
2023-01-31T20:39:19.363Z,0.71
2023-01-31T20:41:50.958Z,0.63
2023-01-31T20:44:19.258Z,0.55
2023-01-31T20:46:48.570Z,0.51
2023-01-31T20:49:17.382Z,0.41
2023-01-31T20:51:45.642Z,0.40
2023-01-31T20:54:13.812Z,0.37
2023-01-31T20:56:43.016Z,0.36
2023-01-31T20:59:13.069Z,0.36
2023-01-31T21:01:45.967Z,0.36
2023-01-31T21:04:15.271Z,0.41
2023-01-31T21:06:45.895Z,0.43
2023-01-31T21:09:14.980Z,0.47
2023-01-31T21:11:44.825Z,0.46
2023-01-31T21:14:13.623Z,0.44
2023-01-31T21:16:41.685Z,0.50
2023-01-31T21:19:11.034Z,0.47
2023-01-31T21:21:39.183Z,0.42
2023-01-31T21:24:08.816Z,0.34
2023-01-31T21:26:56.914Z,0.31
2023-01-31T21:29:24.889Z,0.29
2023-01-31T21:31:53.153Z,0.28
2023-01-31T21:34:23.421Z,0.30
2023-01-31T21:36:51.736Z,0.26
2023-01-31T21:39:20.161Z,0.24
2023-01-31T21:42:08.469Z,0.19
2023-01-31T21:44:37.065Z,0.22
2023-01-31T21:47:05.426Z,0.22
2023-01-31T21:49:34.279Z,0.21
2023-01-31T21:52:04.173Z,0.22
2023-01-31T21:54:32.825Z,0.24
2023-01-31T21:57:01.277Z,0.26
2023-01-31T21:59:29.300Z,0.29
2023-01-31T22:01:58.283Z,0.30
2023-01-31T22:04:26.758Z,0.31
2023-01-31T22:06:55.974Z,0.32
2023-01-31T22:09:24.439Z,0.33
2023-01-31T22:11:54.923Z,0.35
2023-01-31T22:14:23.446Z,0.37
2023-01-31T22:16:56.752Z,0.42
2023-01-31T22:19:28.970Z,0.40
2023-01-31T22:21:59.179Z,0.37
2023-01-31T22:24:28.694Z,0.34
2023-01-31T22:26:57.481Z,0.34
2023-01-31T22:29:26.260Z,0.26
2023-01-31T22:31:56.447Z,0.24
2023-01-31T22:34:25.247Z,0.27
2023-01-31T22:36:54.385Z,0.22
2023-01-31T22:39:25.932Z,0.24
2023-01-31T22:41:56.858Z,0.26
2023-01-31T22:44:26.998Z,0.25
2023-01-31T22:46:55.433Z,0.26
2023-01-31T22:49:23.649Z,0.26
2023-01-31T22:51:51.867Z,0.29
2023-01-31T22:54:22.400Z,0.30
2023-01-31T22:56:50.552Z,0.33
2023-01-31T22:59:18.782Z,0.33
2023-01-31T23:01:47.251Z,0.33
2023-01-31T23:04:17.629Z,0.31
2023-01-31T23:06:45.958Z,0.36
2023-01-31T23:09:14.268Z,0.34
2023-01-31T23:11:44.878Z,0.38
2023-01-31T23:14:13.215Z,0.37
2023-01-31T23:17:00.222Z,0.37
2023-01-31T23:19:29.578Z,0.37
2023-01-31T23:21:58.907Z,0.38
2023-01-31T23:24:30.208Z,0.34
2023-01-31T23:27:00.332Z,0.30
2023-01-31T23:29:28.799Z,0.27
2023-01-31T23:31:56.806Z,0.26
2023-01-31T23:34:25.299Z,0.25
2023-01-31T23:36:53.596Z,0.26
2023-01-31T23:39:22.230Z,0.28
2023-01-31T23:41:50.210Z,0.26
2023-01-31T23:44:18.253Z,0.23
2023-01-31T23:46:46.816Z,0.24
2023-01-31T23:49:14.931Z,0.23
2023-01-31T23:51:43.261Z,0.18
2023-01-31T23:54:12.865Z,0.08
2023-01-31T23:56:41.152Z,0.01
2023-01-31T23:59:09.262Z,-0.02
